Aviation Digital Data Service (ADDS)

Output produced by METARs form (0824 UTC 26 January 2015)
found at http://aviationweather.gov/adds/metars/
 
KLEB 260528Z 2606/2706 VRB03KT P6SM BKN250 
     FM262000 04004KT P6SM SCT050 BKN100 
     FM270000 01005KT 4SM -SN OVC025